Time;durP1;ratioP1;P1;durP2;ratioP2;P2;SDS_P1;SDS_P2;PMS_P1;PMS_P2;Temp;Humidity;BMP_temperature;BMP_pressure;BME280_temperature;BME280_humidity;BME280_pressure;Samples;Min_cycle;Max_cycle;Signal;HPM_P1;HPM_P2
2023/07/05 00:01:10;;;;;;;17.40;9.63;;;;;;;;;;4958549;28;20254;-64
2023/07/05 00:03:36;;;;;;;19.10;10.15;;;;;;;;;;4945967;28;20333;-64
2023/07/05 00:06:03;;;;;;;20.85;10.60;;;;;;;;;;4964013;28;20767;-64
2023/07/05 00:08:28;;;;;;;19.48;10.35;;;;;;;;;;4959340;28;20214;-64
2023/07/05 00:11:02;;;;;;;19.17;12.15;;;;;;;;;;4946186;28;20212;-64
2023/07/05 00:13:27;;;;;;;19.08;12.07;;;;;;;;;;4964433;28;20696;-63
2023/07/05 00:15:52;;;;;;;16.33;10.82;;;;;;;;;;4950183;28;20928;-64
2023/07/05 00:18:18;;;;;;;16.88;11.90;;;;;;;;;;4938010;28;20223;-64
2023/07/05 00:20:43;;;;;;;19.20;11.32;;;;;;;;;;4938360;28;20225;-64
2023/07/05 00:23:09;;;;;;;18.73;10.70;;;;;;;;;;4939897;28;20361;-63
2023/07/05 00:25:34;;;;;;;18.85;11.38;;;;;;;;;;4945577;28;20301;-64
2023/07/05 00:27:59;;;;;;;17.08;10.52;;;;;;;;;;4945512;28;20221;-62
2023/07/05 00:30:24;;;;;;;17.08;10.60;;;;;;;;;;4944436;28;20245;-62
2023/07/05 00:32:50;;;;;;;17.45;10.27;;;;;;;;;;4957805;28;20563;-62
2023/07/05 00:35:15;;;;;;;15.00;9.95;;;;;;;;;;4945142;28;20238;-63
2023/07/05 00:37:40;;;;;;;14.70;9.13;;;;;;;;;;4944151;28;20547;-63
2023/07/05 00:40:06;;;;;;;16.00;9.43;;;;;;;;;;4937488;28;20222;-63
2023/07/05 00:42:31;;;;;;;16.27;8.50;;;;;;;;;;4941494;28;20210;-62
2023/07/05 00:45:06;;;;;;;13.57;8.75;;;;;;;;;;4950580;28;20210;-61
2023/07/05 00:47:31;;;;;;;13.38;7.45;;;;;;;;;;4946573;28;20223;-62
2023/07/05 00:49:58;;;;;;;13.63;7.40;;;;;;;;;;4946441;28;20218;-62
2023/07/05 00:52:23;;;;;;;12.38;7.30;;;;;;;;;;4945228;28;20333;-62
2023/07/05 00:54:52;;;;;;;11.18;7.70;;;;;;;;;;4964084;28;20237;-63
2023/07/05 00:57:18;;;;;;;11.35;6.63;;;;;;;;;;4962969;28;20583;-63
2023/07/05 00:59:48;;;;;;;11.25;6.93;;;;;;;;;;4946767;28;20679;-63
2023/07/05 01:02:14;;;;;;;11.40;6.05;;;;;;;;;;4939993;28;20247;-62
2023/07/05 01:04:39;;;;;;;11.70;6.47;;;;;;;;;;4937960;28;20605;-62
2023/07/05 01:07:04;;;;;;;9.80;5.82;;;;;;;;;;4955213;28;20587;-63
2023/07/05 01:09:31;;;;;;;14.13;6.85;;;;;;;;;;4968529;28;20296;-62
2023/07/05 01:12:12;;;;;;;11.90;6.25;;;;;;;;;;4970732;28;20214;-62
2023/07/05 01:14:53;;;;;;;11.02;6.78;;;;;;;;;;4970881;28;20401;-63
2023/07/05 01:17:28;;;;;;;11.70;6.43;;;;;;;;;;4953884;28;20611;-64
2023/07/05 01:20:00;;;;;;;9.48;6.40;;;;;;;;;;4949054;28;20218;-63
2023/07/05 01:22:33;;;;;;;12.15;7.03;;;;;;;;;;4927875;28;20740;-63
2023/07/05 01:25:06;;;;;;;11.63;7.40;;;;;;;;;;4946336;28;20221;-63
2023/07/05 01:27:32;;;;;;;11.95;7.03;;;;;;;;;;4962416;28;20217;-63
2023/07/05 01:29:58;;;;;;;13.68;7.22;;;;;;;;;;4949561;28;20245;-62
2023/07/05 01:32:25;;;;;;;10.90;7.22;;;;;;;;;;4961219;28;20312;-63
2023/07/05 01:34:55;;;;;;;11.70;7.07;;;;;;;;;;4962434;28;20317;-63
2023/07/05 01:37:24;;;;;;;11.80;6.82;;;;;;;;;;4937961;28;20774;-62
2023/07/05 01:39:49;;;;;;;12.00;7.10;;;;;;;;;;4954985;28;20669;-62
2023/07/05 01:42:14;;;;;;;13.23;7.88;;;;;;;;;;4953345;28;20277;-62
2023/07/05 01:44:40;;;;;;;11.77;7.35;;;;;;;;;;4944586;28;20293;-62
2023/07/05 01:47:05;;;;;;;12.43;7.30;;;;;;;;;;4944063;28;20206;-62
2023/07/05 01:49:36;;;;;;;12.88;7.97;;;;;;;;;;4963131;28;20592;-62
2023/07/05 01:52:12;;;;;;;11.77;7.43;;;;;;;;;;4945341;28;20222;-62
2023/07/05 01:54:40;;;;;;;12.50;7.10;;;;;;;;;;4962572;28;20236;-62
2023/07/05 01:57:06;;;;;;;11.73;6.90;;;;;;;;;;4945060;28;20722;-63
2023/07/05 01:59:34;;;;;;;11.27;6.22;;;;;;;;;;4936579;28;20219;-63
2023/07/05 02:01:59;;;;;;;11.38;5.85;;;;;;;;;;4953835;28;20221;-63
2023/07/05 02:04:25;;;;;;;9.68;5.45;;;;;;;;;;4937365;28;20271;-63
2023/07/05 02:06:51;;;;;;;10.18;5.47;;;;;;;;;;4945441;28;20570;-63
2023/07/05 02:09:16;;;;;;;10.50;5.70;;;;;;;;;;4944765;28;20818;-63
2023/07/05 02:11:42;;;;;;;11.75;5.80;;;;;;;;;;4946284;28;20223;-63
2023/07/05 02:14:08;;;;;;;10.98;5.32;;;;;;;;;;4943628;28;20226;-63
2023/07/05 02:16:33;;;;;;;11.27;5.53;;;;;;;;;;4945819;28;20266;-63
2023/07/05 02:18:58;;;;;;;7.57;4.70;;;;;;;;;;4944064;28;20261;-63
2023/07/05 02:21:24;;;;;;;9.77;5.68;;;;;;;;;;4938253;28;20298;-63
2023/07/05 02:23:49;;;;;;;8.82;4.45;;;;;;;;;;4954121;28;20275;-63
2023/07/05 02:26:14;;;;;;;10.45;4.50;;;;;;;;;;4941180;28;20324;-63
2023/07/05 02:28:40;;;;;;;10.18;4.30;;;;;;;;;;4940344;28;20717;-63
2023/07/05 02:31:06;;;;;;;8.20;4.45;;;;;;;;;;4943065;28;20597;-62
2023/07/05 02:33:34;;;;;;;8.95;4.63;;;;;;;;;;4962053;28;20226;-62
2023/07/05 02:35:59;;;;;;;5.95;4.22;;;;;;;;;;4962634;28;20249;-63
2023/07/05 02:38:25;;;;;;;8.32;4.30;;;;;;;;;;4962010;28;20205;-63
2023/07/05 02:40:50;;;;;;;6.43;3.83;;;;;;;;;;4962772;28;20221;-63
2023/07/05 02:43:15;;;;;;;7.60;3.70;;;;;;;;;;4948763;28;20391;-63
2023/07/05 02:45:40;;;;;;;6.90;3.90;;;;;;;;;;4957232;28;20210;-62
2023/07/05 02:48:06;;;;;;;4.40;3.25;;;;;;;;;;4968987;28;20583;-63
2023/07/05 02:50:32;;;;;;;7.82;3.70;;;;;;;;;;4970143;28;20217;-63
2023/07/05 02:52:57;;;;;;;6.93;3.38;;;;;;;;;;4970269;28;20205;-62
2023/07/05 02:55:22;;;;;;;6.28;3.25;;;;;;;;;;4969727;28;20222;-62
2023/07/05 02:57:48;;;;;;;6.65;3.17;;;;;;;;;;4952672;28;20206;-62
2023/07/05 03:00:13;;;;;;;5.47;3.10;;;;;;;;;;4969666;28;20222;-62
2023/07/05 03:02:38;;;;;;;4.68;2.75;;;;;;;;;;4970358;28;20302;-62
2023/07/05 03:05:06;;;;;;;6.38;3.00;;;;;;;;;;4950611;28;20595;-62
2023/07/05 03:07:31;;;;;;;6.78;2.72;;;;;;;;;;4940779;28;20226;-62
2023/07/05 03:09:56;;;;;;;6.70;2.85;;;;;;;;;;4938544;28;20566;-62
2023/07/05 03:12:21;;;;;;;6.03;3.08;;;;;;;;;;4942158;28;20358;-62
2023/07/05 03:14:47;;;;;;;4.40;2.45;;;;;;;;;;4945614;28;20234;-62
2023/07/05 03:17:12;;;;;;;4.85;2.70;;;;;;;;;;4946300;28;20210;-63
2023/07/05 03:19:37;;;;;;;6.80;2.80;;;;;;;;;;4946457;28;20325;-62
2023/07/05 03:22:03;;;;;;;4.55;2.70;;;;;;;;;;4946188;28;20226;-62
2023/07/05 03:24:28;;;;;;;5.53;2.90;;;;;;;;;;4955410;28;20214;-62
2023/07/05 03:26:53;;;;;;;5.75;3.00;;;;;;;;;;4957374;28;20222;-62
2023/07/05 03:29:19;;;;;;;5.50;2.75;;;;;;;;;;4956986;28;20214;-62
2023/07/05 03:31:44;;;;;;;5.28;3.10;;;;;;;;;;4957925;28;20248;-62
2023/07/05 03:34:09;;;;;;;4.72;2.50;;;;;;;;;;4963951;28;20224;-62
2023/07/05 03:36:35;;;;;;;5.22;3.08;;;;;;;;;;4965602;28;20209;-62
2023/07/05 03:39:00;;;;;;;5.93;3.20;;;;;;;;;;4964726;28;20237;-62
2023/07/05 03:41:26;;;;;;;5.28;2.90;;;;;;;;;;4965079;28;20217;-62
2023/07/05 03:43:53;;;;;;;4.80;2.90;;;;;;;;;;4950607;28;20273;-62
2023/07/05 03:46:18;;;;;;;5.50;2.92;;;;;;;;;;4948568;28;20568;-62
2023/07/05 03:48:44;;;;;;;6.30;3.28;;;;;;;;;;4941170;28;20273;-62
2023/07/05 03:51:10;;;;;;;6.13;3.00;;;;;;;;;;4937345;28;20221;-63
2023/07/05 03:53:35;;;;;;;5.97;3.15;;;;;;;;;;4937965;28;20226;-62
2023/07/05 03:56:01;;;;;;;5.90;2.92;;;;;;;;;;4942576;28;20226;-62
2023/07/05 03:58:27;;;;;;;5.82;3.35;;;;;;;;;;4946284;28;20222;-62
2023/07/05 04:00:52;;;;;;;6.05;3.00;;;;;;;;;;4956177;28;20237;-62
2023/07/05 04:03:17;;;;;;;6.78;3.25;;;;;;;;;;4964635;28;20248;-61
2023/07/05 04:05:42;;;;;;;6.93;3.60;;;;;;;;;;4964974;28;20236;-62
2023/07/05 04:08:08;;;;;;;6.00;3.30;;;;;;;;;;4957249;28;20709;-62
2023/07/05 04:10:33;;;;;;;6.15;3.10;;;;;;;;;;4942403;28;20213;-63
2023/07/05 04:12:58;;;;;;;5.70;3.05;;;;;;;;;;4938495;28;20504;-64
2023/07/05 04:15:24;;;;;;;6.43;3.38;;;;;;;;;;4936006;28;20811;-65
2023/07/05 04:17:49;;;;;;;7.20;3.43;;;;;;;;;;4940148;28;20428;-63
2023/07/05 04:20:14;;;;;;;12.02;3.40;;;;;;;;;;4945260;28;20214;-62
2023/07/05 04:22:40;;;;;;;6.97;3.70;;;;;;;;;;4944054;28;20427;-63
2023/07/05 04:25:06;;;;;;;6.65;3.78;;;;;;;;;;4945431;28;20994;-63
2023/07/05 04:27:31;;;;;;;7.35;3.85;;;;;;;;;;4964239;28;20217;-63
2023/07/05 04:29:57;;;;;;;6.03;3.60;;;;;;;;;;4963984;28;20234;-63
2023/07/05 04:32:22;;;;;;;7.45;3.35;;;;;;;;;;4943585;28;20301;-64
2023/07/05 04:34:47;;;;;;;6.13;3.63;;;;;;;;;;4936915;28;20725;-63
2023/07/05 04:37:13;;;;;;;6.07;3.63;;;;;;;;;;4936038;28;20326;-63
2023/07/05 04:39:38;;;;;;;9.35;3.83;;;;;;;;;;4938448;28;20215;-61
2023/07/05 04:42:04;;;;;;;9.48;3.95;;;;;;;;;;4943895;28;20234;-61
2023/07/05 04:44:29;;;;;;;7.45;3.75;;;;;;;;;;4945235;28;20228;-62
2023/07/05 04:46:54;;;;;;;9.35;3.95;;;;;;;;;;4945477;28;20689;-61
2023/07/05 04:49:19;;;;;;;7.97;3.90;;;;;;;;;;4962823;28;20214;-61
2023/07/05 04:51:45;;;;;;;7.88;4.00;;;;;;;;;;4964104;28;20218;-61
2023/07/05 04:54:12;;;;;;;7.75;3.75;;;;;;;;;;4963570;28;20244;-61
2023/07/05 04:56:37;;;;;;;7.38;3.78;;;;;;;;;;4958293;28;20218;-61
2023/07/05 04:59:04;;;;;;;6.80;4.00;;;;;;;;;;4954740;28;20719;-61
2023/07/05 05:01:29;;;;;;;7.57;3.75;;;;;;;;;;4947835;28;20717;-61
2023/07/05 05:03:55;;;;;;;6.90;3.80;;;;;;;;;;4942454;28;20224;-61
2023/07/05 05:06:20;;;;;;;7.57;3.88;;;;;;;;;;4962723;28;20666;-61
2023/07/05 05:08:45;;;;;;;6.75;3.70;;;;;;;;;;4959392;28;20229;-61
2023/07/05 05:11:11;;;;;;;6.75;3.63;;;;;;;;;;4943845;28;20210;-61
2023/07/05 05:13:36;;;;;;;7.32;4.05;;;;;;;;;;4941297;28;20229;-61
2023/07/05 05:16:02;;;;;;;7.03;4.03;;;;;;;;;;4943549;28;20247;-60
2023/07/05 05:18:29;;;;;;;7.18;3.75;;;;;;;;;;4957940;28;21026;-61
2023/07/05 05:20:54;;;;;;;9.38;3.75;;;;;;;;;;4955430;28;20233;-61
2023/07/05 05:23:19;;;;;;;8.27;4.00;;;;;;;;;;4939265;28;20689;-61
2023/07/05 05:25:45;;;;;;;7.68;3.80;;;;;;;;;;4945927;28;20568;-62
2023/07/05 05:28:10;;;;;;;7.05;3.75;;;;;;;;;;4962795;28;20228;-62
2023/07/05 05:30:36;;;;;;;6.97;3.90;;;;;;;;;;4963195;28;20638;-63
2023/07/05 05:33:02;;;;;;;7.15;4.00;;;;;;;;;;4962152;28;20707;-61
2023/07/05 05:35:27;;;;;;;8.40;3.80;;;;;;;;;;4963593;28;20226;-62
2023/07/05 05:37:53;;;;;;;5.82;3.47;;;;;;;;;;4953596;28;20225;-62
2023/07/05 05:40:18;;;;;;;7.97;4.00;;;;;;;;;;4962251;28;20217;-62
2023/07/05 05:42:44;;;;;;;7.43;4.05;;;;;;;;;;4949037;28;20234;-62
2023/07/05 05:45:10;;;;;;;7.55;3.70;;;;;;;;;;4935952;28;20223;-63
2023/07/05 05:47:35;;;;;;;7.30;3.60;;;;;;;;;;4937158;28;20224;-63
2023/07/05 05:50:00;;;;;;;9.73;3.55;;;;;;;;;;4943736;28;20211;-61
2023/07/05 05:52:26;;;;;;;7.07;3.72;;;;;;;;;;4945039;28;20369;-62
2023/07/05 05:54:51;;;;;;;8.75;3.75;;;;;;;;;;4943734;28;20590;-62
2023/07/05 05:57:16;;;;;;;5.53;3.42;;;;;;;;;;4959045;28;20218;-63
2023/07/05 05:59:42;;;;;;;8.10;3.80;;;;;;;;;;4944995;28;20244;-62
2023/07/05 06:02:08;;;;;;;7.88;3.95;;;;;;;;;;4962813;28;20685;-62
2023/07/05 06:04:33;;;;;;;6.53;3.38;;;;;;;;;;4940987;28;20303;-62
2023/07/05 06:06:59;;;;;;;8.88;3.50;;;;;;;;;;4953010;28;21184;-63
2023/07/05 06:09:24;;;;;;;7.35;3.15;;;;;;;;;;4936537;28;20218;-62
2023/07/05 06:11:50;;;;;;;7.35;3.60;;;;;;;;;;4941973;28;20289;-62
2023/07/05 06:14:15;;;;;;;7.60;3.63;;;;;;;;;;4943302;28;20215;-63
2023/07/05 06:16:40;;;;;;;5.90;3.25;;;;;;;;;;4944162;28;20222;-63
2023/07/05 06:19:06;;;;;;;6.38;3.00;;;;;;;;;;4944308;28;20222;-63
2023/07/05 06:21:31;;;;;;;8.18;3.20;;;;;;;;;;4943909;28;20218;-63
2023/07/05 06:23:57;;;;;;;6.10;3.42;;;;;;;;;;4943500;28;20218;-62
2023/07/05 06:26:22;;;;;;;7.28;3.30;;;;;;;;;;4940557;28;20214;-63
2023/07/05 06:28:48;;;;;;;7.38;3.25;;;;;;;;;;4954878;28;20754;-62
2023/07/05 06:31:13;;;;;;;6.07;2.72;;;;;;;;;;4954706;28;20605;-63
2023/07/05 06:33:39;;;;;;;7.47;3.28;;;;;;;;;;4958519;28;20305;-62
2023/07/05 06:36:04;;;;;;;8.27;3.10;;;;;;;;;;4962198;28;20234;-61
2023/07/05 06:38:30;;;;;;;6.55;3.40;;;;;;;;;;4959210;28;21112;-62
2023/07/05 06:40:56;;;;;;;8.27;3.20;;;;;;;;;;4944836;28;20678;-62
2023/07/05 06:43:21;;;;;;;7.03;3.20;;;;;;;;;;4950592;28;20556;-63
2023/07/05 06:45:48;;;;;;;6.88;3.42;;;;;;;;;;4944245;28;20219;-62
2023/07/05 06:48:13;;;;;;;9.02;3.25;;;;;;;;;;4945272;28;20683;-61
2023/07/05 06:50:39;;;;;;;6.75;3.28;;;;;;;;;;4939373;28;20214;-63
2023/07/05 06:53:04;;;;;;;6.05;3.17;;;;;;;;;;4939129;28;20222;-62
2023/07/05 06:55:29;;;;;;;5.68;3.10;;;;;;;;;;4940219;28;20328;-62
2023/07/05 06:57:55;;;;;;;8.60;2.88;;;;;;;;;;4946696;28;20223;-63
2023/07/05 07:00:20;;;;;;;5.13;2.70;;;;;;;;;;4947675;28;20242;-62
2023/07/05 07:02:45;;;;;;;5.75;2.60;;;;;;;;;;4962948;28;20301;-61
2023/07/05 07:05:11;;;;;;;7.07;2.50;;;;;;;;;;4973158;28;20230;-61
2023/07/05 07:07:36;;;;;;;5.97;2.08;;;;;;;;;;4974515;28;20241;-62
2023/07/05 07:10:02;;;;;;;6.60;2.63;;;;;;;;;;4973347;28;20209;-61
2023/07/05 07:12:28;;;;;;;6.00;2.35;;;;;;;;;;4974253;28;20217;-62
2023/07/05 07:14:53;;;;;;;5.80;1.80;;;;;;;;;;4973677;28;20240;-62
2023/07/05 07:17:18;;;;;;;4.45;1.50;;;;;;;;;;4973340;28;20216;-62
2023/07/05 07:19:44;;;;;;;2.97;1.70;;;;;;;;;;4972433;28;20297;-63
2023/07/05 07:22:09;;;;;;;5.57;1.60;;;;;;;;;;4973638;28;20220;-63
2023/07/05 07:24:34;;;;;;;3.67;1.60;;;;;;;;;;4973362;28;20292;-63
2023/07/05 07:27:00;;;;;;;4.03;1.70;;;;;;;;;;4973726;28;20214;-63
2023/07/05 07:29:25;;;;;;;3.88;1.65;;;;;;;;;;4971260;28;20224;-63
2023/07/05 07:31:51;;;;;;;3.28;1.77;;;;;;;;;;4973095;28;20276;-63
2023/07/05 07:34:16;;;;;;;3.90;1.90;;;;;;;;;;4973343;28;20214;-63
2023/07/05 07:36:41;;;;;;;4.43;1.70;;;;;;;;;;4973813;28;20221;-63
2023/07/05 07:39:07;;;;;;;3.70;1.95;;;;;;;;;;4972367;28;20624;-62
2023/07/05 07:41:33;;;;;;;4.93;1.60;;;;;;;;;;4973695;28;20210;-64
2023/07/05 07:43:59;;;;;;;4.78;1.70;;;;;;;;;;4973125;28;20213;-63
2023/07/05 07:46:25;;;;;;;2.58;1.38;;;;;;;;;;4972378;28;20353;-63
2023/07/05 07:48:51;;;;;;;3.97;1.48;;;;;;;;;;4973725;28;20304;-63
2023/07/05 07:51:16;;;;;;;6.10;1.92;;;;;;;;;;4973184;28;20218;-64
2023/07/05 07:53:42;;;;;;;4.78;1.52;;;;;;;;;;4972937;28;20686;-63
2023/07/05 07:56:09;;;;;;;5.75;1.40;;;;;;;;;;4973083;28;20276;-63
2023/07/05 07:58:34;;;;;;;4.32;1.20;;;;;;;;;;4973211;28;20307;-63
2023/07/05 08:01:09;;;;;;;3.97;1.27;;;;;;;;;;4972187;28;20210;-63
2023/07/05 08:03:34;;;;;;;5.40;1.45;;;;;;;;;;4972694;28;20267;-64
2023/07/05 08:05:59;;;;;;;5.50;1.70;;;;;;;;;;4972859;28;20300;-64
2023/07/05 08:08:25;;;;;;;8.45;2.17;;;;;;;;;;4971782;28;20718;-64
2023/07/05 08:10:50;;;;;;;5.80;2.17;;;;;;;;;;4955979;28;20233;-65
2023/07/05 08:13:15;;;;;;;6.32;2.28;;;;;;;;;;4962324;28;20217;-64
2023/07/05 08:15:41;;;;;;;8.13;2.75;;;;;;;;;;4962253;28;20314;-65
2023/07/05 08:18:06;;;;;;;7.65;2.53;;;;;;;;;;4970926;28;20218;-64
2023/07/05 08:20:33;;;;;;;7.25;2.38;;;;;;;;;;4972552;28;20206;-64
2023/07/05 08:22:58;;;;;;;6.40;2.50;;;;;;;;;;4971278;28;20310;-65
2023/07/05 08:25:24;;;;;;;7.65;2.50;;;;;;;;;;4972460;28;20241;-64
2023/07/05 08:27:49;;;;;;;7.05;2.50;;;;;;;;;;4971538;28;20690;-64
2023/07/05 08:30:14;;;;;;;7.22;2.25;;;;;;;;;;4970950;28;20226;-64
2023/07/05 08:32:40;;;;;;;6.07;2.33;;;;;;;;;;4971898;28;20206;-64
2023/07/05 08:35:05;;;;;;;11.45;2.53;;;;;;;;;;4971024;28;20658;-63
2023/07/05 08:37:31;;;;;;;6.85;2.28;;;;;;;;;;4972365;28;20218;-63
2023/07/05 08:39:56;;;;;;;7.00;2.33;;;;;;;;;;4972004;28;20822;-63
2023/07/05 08:42:25;;;;;;;9.98;2.65;;;;;;;;;;4970646;28;20260;-63
2023/07/05 08:45:15;;;;;;;4.40;2.00;;;;;;;;;;4955057;28;20268;-64
2023/07/05 08:47:48;;;;;;;6.63;2.70;;;;;;;;;;4971371;28;20217;-63
2023/07/05 08:50:20;;;;;;;5.88;2.75;;;;;;;;;;4970792;28;20210;-63
2023/07/05 08:52:45;;;;;;;6.07;2.95;;;;;;;;;;4969807;28;20210;-63
2023/07/05 08:55:12;;;;;;;8.95;3.08;;;;;;;;;;4971168;28;20221;-64
2023/07/05 08:57:40;;;;;;;6.25;3.10;;;;;;;;;;4970628;28;20222;-63
2023/07/05 09:00:11;;;;;;;6.63;3.08;;;;;;;;;;4970898;28;20206;-63
2023/07/05 09:02:37;;;;;;;6.50;2.90;;;;;;;;;;4954596;28;20206;-63
2023/07/05 09:05:04;;;;;;;6.07;3.03;;;;;;;;;;4970933;28;20612;-62
2023/07/05 09:07:41;;;;;;;7.13;3.75;;;;;;;;;;4971518;28;20214;-62
2023/07/05 09:10:12;;;;;;;9.63;3.60;;;;;;;;;;4968100;28;20217;-62
2023/07/05 09:12:56;;;;;;;7.03;3.60;;;;;;;;;;4952808;28;20229;-63
2023/07/05 09:15:23;;;;;;;13.23;3.92;;;;;;;;;;4970782;28;20330;-64
2023/07/05 09:17:49;;;;;;;17.88;6.40;;;;;;;;;;4953302;28;20305;-66
2023/07/05 09:20:33;;;;;;;11.77;4.13;;;;;;;;;;4970859;28;20264;-65
2023/07/05 09:22:58;;;;;;;5.28;2.42;;;;;;;;;;4970745;28;20213;-63
2023/07/05 09:25:24;;;;;;;6.40;2.08;;;;;;;;;;4952891;28;20233;-63
2023/07/05 09:27:51;;;;;;;9.23;2.60;;;;;;;;;;4970867;28;20321;-63
2023/07/05 09:30:24;;;;;;;7.95;2.83;;;;;;;;;;4970548;28;20261;-63
2023/07/05 09:32:53;;;;;;;9.10;2.63;;;;;;;;;;4968615;28;20237;-66
2023/07/05 09:35:19;;;;;;;7.80;2.42;;;;;;;;;;4970374;28;20228;-65
2023/07/05 09:37:50;;;;;;;5.65;1.85;;;;;;;;;;4970812;28;20303;-64
2023/07/05 09:40:23;;;;;;;7.35;2.17;;;;;;;;;;4970064;28;20272;-65
2023/07/05 09:42:49;;;;;;;5.40;1.63;;;;;;;;;;4968629;28;20298;-63
2023/07/05 09:45:14;;;;;;;7.15;2.45;;;;;;;;;;4969890;28;20229;-63
2023/07/05 09:47:40;;;;;;;5.55;2.25;;;;;;;;;;4971199;28;20249;-63
2023/07/05 09:50:13;;;;;;;7.35;2.42;;;;;;;;;;4953159;28;20210;-64
2023/07/05 09:52:39;;;;;;;7.00;2.22;;;;;;;;;;4970168;28;20300;-63
2023/07/05 09:55:05;;;;;;;9.18;2.30;;;;;;;;;;4970446;28;20321;-62
2023/07/05 09:57:30;;;;;;;5.50;1.98;;;;;;;;;;4953342;28;20228;-62
2023/07/05 09:59:55;;;;;;;5.85;1.85;;;;;;;;;;4970140;28;20300;-62
2023/07/05 10:02:22;;;;;;;5.93;1.80;;;;;;;;;;4953125;28;20236;-63
2023/07/05 10:04:48;;;;;;;6.25;2.05;;;;;;;;;;4970654;28;20217;-63
2023/07/05 10:07:15;;;;;;;6.78;2.13;;;;;;;;;;4969606;28;20218;-62
2023/07/05 10:09:52;;;;;;;7.93;2.30;;;;;;;;;;4970618;28;20209;-62
2023/07/05 10:12:18;;;;;;;6.93;2.15;;;;;;;;;;4970202;28;20268;-63
2023/07/05 10:14:43;;;;;;;7.72;2.22;;;;;;;;;;4969545;28;20642;-62
2023/07/05 10:17:09;;;;;;;5.50;2.10;;;;;;;;;;4970180;28;20216;-62
2023/07/05 10:19:39;;;;;;;5.68;2.20;;;;;;;;;;4970655;28;20213;-62
2023/07/05 10:22:06;;;;;;;9.25;2.30;;;;;;;;;;4967065;28;20214;-61
2023/07/05 10:24:34;;;;;;;9.20;2.70;;;;;;;;;;4974486;28;20248;-62
2023/07/05 10:27:04;;;;;;;7.13;2.40;;;;;;;;;;4974090;28;20232;-62
2023/07/05 10:29:29;;;;;;;8.82;2.80;;;;;;;;;;4973482;28;20216;-62
2023/07/05 10:31:56;;;;;;;7.85;2.47;;;;;;;;;;4957427;28;20217;-64
2023/07/05 10:34:23;;;;;;;8.95;3.10;;;;;;;;;;4973104;28;20225;-64
2023/07/05 10:36:48;;;;;;;8.55;2.50;;;;;;;;;;4974498;28;20805;-63
2023/07/05 10:39:16;;;;;;;8.23;2.60;;;;;;;;;;4973771;28;20301;-61
2023/07/05 10:41:42;;;;;;;9.48;3.00;;;;;;;;;;4954023;28;20688;-61
2023/07/05 10:44:10;;;;;;;10.52;2.80;;;;;;;;;;4973491;28;20205;-61
2023/07/05 10:46:36;;;;;;;11.63;3.20;;;;;;;;;;4957334;28;20201;-61
2023/07/05 10:49:03;;;;;;;8.05;2.80;;;;;;;;;;4955832;28;20228;-62
2023/07/05 10:51:31;;;;;;;10.68;3.10;;;;;;;;;;4956852;28;20225;-61
2023/07/05 10:54:02;;;;;;;9.70;3.22;;;;;;;;;;4956490;28;20305;-61
2023/07/05 10:56:30;;;;;;;10.05;3.03;;;;;;;;;;4972491;28;20637;-61
2023/07/05 10:58:58;;;;;;;10.02;3.00;;;;;;;;;;4973595;28;20681;-61
2023/07/05 11:01:26;;;;;;;9.00;3.20;;;;;;;;;;4973566;28;20309;-61
2023/07/05 11:04:00;;;;;;;10.45;3.45;;;;;;;;;;4970976;28;20205;-61
2023/07/05 11:06:27;;;;;;;10.73;3.40;;;;;;;;;;4956252;28;20212;-61
2023/07/05 11:08:52;;;;;;;11.27;3.47;;;;;;;;;;4973904;28;20274;-61
2023/07/05 11:11:19;;;;;;;10.68;3.45;;;;;;;;;;4955504;28;20218;-61
2023/07/05 11:13:44;;;;;;;10.38;3.90;;;;;;;;;;4972959;28;20210;-61
2023/07/05 11:16:14;;;;;;;12.23;3.50;;;;;;;;;;4972531;28;20229;-60
2023/07/05 11:18:39;;;;;;;9.38;2.95;;;;;;;;;;4973463;28;20209;-60
2023/07/05 11:21:07;;;;;;;9.15;2.78;;;;;;;;;;4972229;28;20221;-60
2023/07/05 11:23:39;;;;;;;9.48;3.28;;;;;;;;;;4973840;28;20214;-60
2023/07/05 11:26:04;;;;;;;10.63;3.10;;;;;;;;;;4973910;28;20605;-60
2023/07/05 11:28:30;;;;;;;10.52;3.60;;;;;;;;;;4973725;28;20264;-60
2023/07/05 11:30:56;;;;;;;9.10;3.10;;;;;;;;;;4971999;28;20230;-60
2023/07/05 11:33:22;;;;;;;9.88;3.05;;;;;;;;;;4973687;28;20224;-60
2023/07/05 11:35:54;;;;;;;11.10;3.33;;;;;;;;;;4973238;28;20553;-60
2023/07/05 11:38:35;;;;;;;12.35;3.33;;;;;;;;;;4973023;28;26023;-60
2023/07/05 11:41:01;;;;;;;10.48;3.38;;;;;;;;;;4973525;28;20221;-60
2023/07/05 11:43:31;;;;;;;10.18;3.17;;;;;;;;;;4973664;28;20237;-60
2023/07/05 11:45:57;;;;;;;10.43;4.18;;;;;;;;;;4972853;28;20245;-60
2023/07/05 11:48:36;;;;;;;11.82;3.80;;;;;;;;;;4973325;28;20245;-60
2023/07/05 11:51:01;;;;;;;12.20;4.00;;;;;;;;;;4973248;28;20287;-60
2023/07/05 11:53:27;;;;;;;12.48;3.55;;;;;;;;;;4973006;28;20249;-59
2023/07/05 11:55:53;;;;;;;12.98;3.63;;;;;;;;;;4973500;28;20246;-60
2023/07/05 11:58:21;;;;;;;12.88;4.20;;;;;;;;;;4972328;28;20283;-60
2023/07/05 12:00:48;;;;;;;12.35;3.75;;;;;;;;;;4973195;28;20221;-60
2023/07/05 12:03:15;;;;;;;10.50;3.33;;;;;;;;;;4972893;28;20217;-61
2023/07/05 12:05:41;;;;;;;11.80;4.05;;;;;;;;;;4972706;28;20284;-60
2023/07/05 12:08:13;;;;;;;12.45;3.63;;;;;;;;;;4972758;28;20712;-60
2023/07/05 12:10:40;;;;;;;11.52;3.47;;;;;;;;;;4936738;29;20218;-60
2023/07/05 12:13:07;;;;;;;14.25;4.30;;;;;;;;;;4965414;28;20214;-60
2023/07/05 12:15:34;;;;;;;13.20;4.20;;;;;;;;;;4972845;28;20226;-60
2023/07/05 12:18:02;;;;;;;11.60;4.30;;;;;;;;;;4973270;28;20236;-60
2023/07/05 12:20:28;;;;;;;13.35;3.70;;;;;;;;;;4971936;28;20209;-60
2023/07/05 12:22:55;;;;;;;12.70;4.15;;;;;;;;;;4973011;28;20224;-60
2023/07/05 12:25:21;;;;;;;9.05;3.35;;;;;;;;;;4972584;28;20305;-60
2023/07/05 12:27:46;;;;;;;6.78;2.90;;;;;;;;;;4954644;28;20304;-60
2023/07/05 12:30:16;;;;;;;5.72;2.30;;;;;;;;;;4969878;28;20238;-60
2023/07/05 12:32:44;;;;;;;6.30;2.05;;;;;;;;;;4947188;28;20214;-60
2023/07/05 12:35:09;;;;;;;7.68;2.35;;;;;;;;;;4935816;28;20680;-60
2023/07/05 12:37:35;;;;;;;6.88;2.25;;;;;;;;;;4940920;28;20687;-60
2023/07/05 12:40:14;;;;;;;9.00;2.30;;;;;;;;;;4947523;28;20681;-60
2023/07/05 12:42:52;;;;;;;4.40;1.90;;;;;;;;;;4947522;28;20269;-60
2023/07/05 12:45:26;;;;;;;5.00;2.03;;;;;;;;;;4957412;28;20221;-60
2023/07/05 12:47:52;;;;;;;5.07;1.75;;;;;;;;;;4961985;28;20229;-60
2023/07/05 12:50:19;;;;;;;5.82;2.00;;;;;;;;;;4964615;28;20210;-60
2023/07/05 12:52:47;;;;;;;6.00;2.10;;;;;;;;;;4964998;28;20210;-59
2023/07/05 12:55:22;;;;;;;5.15;2.00;;;;;;;;;;4941864;28;20223;-61
2023/07/05 12:57:52;;;;;;;7.07;2.28;;;;;;;;;;4952431;28;20226;-60
2023/07/05 13:00:19;;;;;;;6.80;2.00;;;;;;;;;;4942346;28;20269;-59
2023/07/05 13:02:45;;;;;;;6.68;2.15;;;;;;;;;;4944361;28;20281;-60
2023/07/05 13:05:10;;;;;;;4.20;1.80;;;;;;;;;;4948206;28;20650;-60
2023/07/05 13:07:37;;;;;;;6.85;2.17;;;;;;;;;;4956745;28;20563;-60
2023/07/05 13:10:06;;;;;;;6.13;2.00;;;;;;;;;;4928772;28;20207;-60
2023/07/05 13:12:45;;;;;;;7.70;2.10;;;;;;;;;;4947508;28;21061;-60
2023/07/05 13:15:11;;;;;;;8.63;2.00;;;;;;;;;;4946232;28;20293;-62
2023/07/05 13:17:36;;;;;;;6.90;1.80;;;;;;;;;;4941354;28;20210;-60
2023/07/05 13:20:05;;;;;;;5.07;1.90;;;;;;;;;;4939405;28;20225;-59
2023/07/05 13:22:30;;;;;;;5.43;2.10;;;;;;;;;;4947817;28;20232;-60
2023/07/05 13:24:56;;;;;;;6.35;2.00;;;;;;;;;;4943886;28;20677;-60
2023/07/05 13:27:25;;;;;;;7.00;1.83;;;;;;;;;;4950881;28;20214;-60
2023/07/05 13:29:51;;;;;;;6.00;2.00;;;;;;;;;;4964318;28;20230;-60
2023/07/05 13:32:25;;;;;;;5.38;1.88;;;;;;;;;;4964881;28;20221;-60
2023/07/05 13:34:51;;;;;;;5.78;1.98;;;;;;;;;;4965315;28;20232;-60
2023/07/05 13:37:18;;;;;;;8.20;2.38;;;;;;;;;;4964305;28;20746;-60
2023/07/05 13:39:43;;;;;;;5.68;2.20;;;;;;;;;;4943953;28;20732;-60
2023/07/05 13:42:11;;;;;;;8.15;2.05;;;;;;;;;;4957179;28;20417;-60
2023/07/05 13:44:37;;;;;;;8.95;2.17;;;;;;;;;;4938130;28;20218;-61
2023/07/05 13:47:02;;;;;;;5.43;2.10;;;;;;;;;;4942665;28;20845;-60
2023/07/05 13:49:28;;;;;;;7.22;2.10;;;;;;;;;;4946550;28;20233;-60
2023/07/05 13:51:54;;;;;;;8.77;2.08;;;;;;;;;;4964540;28;20222;-60
2023/07/05 13:54:20;;;;;;;5.10;2.00;;;;;;;;;;4964796;28;20236;-60
2023/07/05 13:56:45;;;;;;;6.75;2.30;;;;;;;;;;4965028;28;20698;-60
2023/07/05 13:59:11;;;;;;;6.43;2.00;;;;;;;;;;4963411;28;20210;-60
2023/07/05 14:01:37;;;;;;;6.28;2.05;;;;;;;;;;4935006;28;20218;-60
2023/07/05 14:04:02;;;;;;;7.50;2.10;;;;;;;;;;4938159;28;20685;-60
2023/07/05 14:06:29;;;;;;;7.57;2.30;;;;;;;;;;4938621;28;20530;-60
2023/07/05 14:08:55;;;;;;;7.70;2.20;;;;;;;;;;4953034;28;20217;-61
2023/07/05 14:11:23;;;;;;;9.73;2.45;;;;;;;;;;4963865;28;20226;-62
2023/07/05 14:13:49;;;;;;;9.02;2.42;;;;;;;;;;4946480;28;20214;-62
2023/07/05 14:16:16;;;;;;;6.65;2.40;;;;;;;;;;4945462;28;20234;-61
2023/07/05 14:18:42;;;;;;;8.38;2.42;;;;;;;;;;4945984;28;20222;-62
2023/07/05 14:21:15;;;;;;;8.30;2.60;;;;;;;;;;4945085;28;20637;-61
2023/07/05 14:23:41;;;;;;;6.90;2.40;;;;;;;;;;4964654;28;20254;-62
2023/07/05 14:26:08;;;;;;;9.40;2.53;;;;;;;;;;4956262;28;20329;-62
2023/07/05 14:28:34;;;;;;;13.27;2.80;;;;;;;;;;4957384;28;20206;-63
2023/07/05 14:31:00;;;;;;;8.32;2.80;;;;;;;;;;4958248;28;20296;-63
2023/07/05 14:33:26;;;;;;;7.47;3.00;;;;;;;;;;4962369;28;20225;-63
2023/07/05 14:35:51;;;;;;;7.93;3.13;;;;;;;;;;4951458;28;20234;-63